createdAt,value
2018-07-22T00:01:35.663Z,100431.39
2018-07-22T00:04:03.830Z,100427.91
2018-07-22T00:06:31.574Z,100424.57
2018-07-22T00:08:59.319Z,100427.36
2018-07-22T00:11:27.228Z,100421.88
2018-07-22T00:13:54.958Z,100423.91
2018-07-22T00:16:22.699Z,100428.75
2018-07-22T00:18:50.463Z,100422.47
2018-07-22T00:21:18.218Z,100423.73
2018-07-22T00:23:45.986Z,100413.85
2018-07-22T00:26:13.759Z,100419.53
2018-07-22T00:28:41.505Z,100418.38
2018-07-22T00:31:09.282Z,100418.09
2018-07-22T00:33:37.150Z,100413.56
2018-07-22T00:36:05.016Z,100414.98
2018-07-22T00:38:32.802Z,100405.84
2018-07-22T00:41:00.562Z,100414.22
2018-07-22T00:43:28.392Z,100414.35
2018-07-22T00:45:56.166Z,100420.88
2018-07-22T00:48:23.944Z,100420.45
2018-07-22T00:50:51.672Z,100435.73
2018-07-22T00:53:19.456Z,100429.87
2018-07-22T00:55:47.242Z,100437.34
2018-07-22T00:58:14.962Z,100438.78
2018-07-22T01:00:42.731Z,100435.00
2018-07-22T01:03:10.453Z,100440.25
2018-07-22T01:05:38.136Z,100434.52
2018-07-22T01:08:05.849Z,100431.25
2018-07-22T01:10:33.579Z,100423.72
2018-07-22T01:13:01.278Z,100421.30
2018-07-22T01:15:28.984Z,100423.97
2018-07-22T01:17:56.823Z,100422.09
2018-07-22T01:20:24.532Z,100422.45
2018-07-22T01:22:52.212Z,100422.45
2018-07-22T01:25:20.102Z,100420.84
2018-07-22T01:27:47.902Z,100327.70
2018-07-22T01:30:15.709Z,100424.38
2018-07-22T01:32:43.489Z,100420.70
2018-07-22T01:35:11.240Z,100426.34
2018-07-22T01:37:38.940Z,100425.85
2018-07-22T01:40:06.980Z,100425.01
2018-07-22T01:42:34.741Z,100424.01
2018-07-22T01:45:02.514Z,100415.78
2018-07-22T01:47:30.421Z,100417.97
2018-07-22T01:49:58.208Z,100420.81
2018-07-22T01:52:25.909Z,100415.46
2018-07-22T01:54:53.605Z,100418.67
2018-07-22T01:57:21.293Z,100403.41
2018-07-22T01:59:49.001Z,100400.30
2018-07-22T02:02:16.710Z,100405.63
2018-07-22T02:04:44.428Z,100406.65
2018-07-22T02:07:12.136Z,100405.75
2018-07-22T02:09:39.989Z,100406.11
2018-07-22T02:12:07.973Z,100402.31
2018-07-22T02:14:35.664Z,100397.62
2018-07-22T02:17:03.434Z,100394.70
2018-07-22T02:19:31.193Z,100401.33
2018-07-22T02:21:58.968Z,100409.82
2018-07-22T02:24:26.892Z,100395.18
2018-07-22T02:26:54.658Z,100396.16
2018-07-22T02:29:22.458Z,100393.96
2018-07-22T02:31:50.228Z,100394.10
2018-07-22T02:34:17.964Z,100393.81
2018-07-22T02:36:45.722Z,100390.61
2018-07-22T02:39:13.444Z,100390.09
2018-07-22T02:41:41.284Z,100389.37
2018-07-22T02:44:09.367Z,100381.06
2018-07-22T02:46:37.415Z,100380.67
2018-07-22T02:49:05.503Z,100377.33
2018-07-22T02:51:33.314Z,100376.77
2018-07-22T02:54:00.994Z,100385.08
2018-07-22T02:56:28.741Z,100376.10
2018-07-22T02:58:56.499Z,100372.75
2018-07-22T03:01:24.350Z,100367.41
2018-07-22T03:03:52.073Z,100374.77
2018-07-22T03:06:19.806Z,100382.28
2018-07-22T03:08:47.559Z,100381.92
2018-07-22T03:11:15.273Z,100377.65
2018-07-22T03:13:43.023Z,100371.25
2018-07-22T03:16:18.727Z,100377.14
2018-07-22T03:18:46.490Z,100368.83
2018-07-22T03:21:14.254Z,100366.66
2018-07-22T03:23:42.015Z,100367.13
2018-07-22T03:26:09.703Z,100365.47
2018-07-22T03:28:37.437Z,100363.48
2018-07-22T03:31:05.167Z,100359.77
2018-07-22T03:33:32.845Z,100357.44
2018-07-22T03:36:00.550Z,100359.34
2018-07-22T03:38:28.335Z,100363.48
2018-07-22T03:40:56.179Z,100357.80
2018-07-22T03:43:23.906Z,100356.42
2018-07-22T03:45:51.610Z,100354.06
2018-07-22T03:48:19.335Z,100358.45
2018-07-22T03:50:47.095Z,100352.44
2018-07-22T03:53:14.858Z,100350.75
2018-07-22T03:55:42.590Z,100352.09
2018-07-22T03:58:10.361Z,100349.41
2018-07-22T04:00:38.076Z,100355.95
2018-07-22T04:03:06.132Z,100356.25
2018-07-22T04:05:33.877Z,100352.73
2018-07-22T04:08:01.618Z,100350.11
2018-07-22T04:10:29.399Z,100345.25
2018-07-22T04:12:57.286Z,100343.41
2018-07-22T04:15:25.202Z,100345.79
2018-07-22T04:17:52.942Z,100345.77
2018-07-22T04:20:20.691Z,100342.07
2018-07-22T04:22:48.431Z,100348.12
2018-07-22T04:25:16.169Z,100341.75
2018-07-22T04:27:43.902Z,100343.62
2018-07-22T04:30:11.622Z,100342.13
2018-07-22T04:32:39.402Z,100340.09
2018-07-22T04:35:07.139Z,100341.63
2018-07-22T04:37:34.950Z,100335.43
2018-07-22T04:40:02.885Z,100340.62
2018-07-22T04:42:30.646Z,100340.78
2018-07-22T04:44:58.346Z,100334.08
2018-07-22T04:47:26.078Z,100341.11
2018-07-22T04:49:53.852Z,100341.79
2018-07-22T04:52:21.750Z,100339.98
2018-07-22T04:54:49.438Z,100349.34
2018-07-22T04:57:17.161Z,100344.80
2018-07-22T04:59:44.852Z,100348.02
2018-07-22T05:02:12.659Z,100349.53
2018-07-22T05:04:40.376Z,100354.02
2018-07-22T05:07:08.141Z,100348.34
2018-07-22T05:09:35.869Z,100355.22
2018-07-22T05:12:03.662Z,100356.56
2018-07-22T05:14:31.345Z,100360.06
2018-07-22T05:16:59.091Z,100362.73
2018-07-22T05:19:26.818Z,100362.92
2018-07-22T05:21:54.558Z,100373.45
2018-07-22T05:24:22.321Z,100373.25
2018-07-22T05:26:50.045Z,100373.25
2018-07-22T05:29:17.783Z,100369.95
2018-07-22T05:31:45.498Z,100371.25
2018-07-22T05:34:13.248Z,100372.91
2018-07-22T05:36:41.047Z,100372.91
2018-07-22T05:39:10.514Z,100384.83
2018-07-22T05:41:38.274Z,100378.81
2018-07-22T05:44:06.157Z,100382.50
2018-07-22T05:46:34.015Z,100390.73
2018-07-22T05:49:01.966Z,100390.38
2018-07-22T05:51:29.769Z,100387.05
2018-07-22T05:53:57.684Z,100387.89
2018-07-22T05:56:25.411Z,100394.75
2018-07-22T05:58:53.168Z,100394.40
2018-07-22T06:01:21.017Z,100400.11
2018-07-22T06:03:48.763Z,100397.40
2018-07-22T06:06:16.550Z,100407.06
2018-07-22T06:08:44.313Z,100400.69
2018-07-22T06:11:12.098Z,100402.44
2018-07-22T06:13:39.860Z,100405.72
2018-07-22T06:16:07.686Z,100410.06
2018-07-22T06:18:35.477Z,100410.61
2018-07-22T06:21:03.273Z,100415.95
2018-07-22T06:23:31.003Z,100412.80
2018-07-22T06:25:58.774Z,100416.63
2018-07-22T06:28:26.562Z,100411.64
2018-07-22T06:30:54.348Z,100420.55
2018-07-22T06:33:22.100Z,100418.36
2018-07-22T06:35:49.869Z,100418.86
2018-07-22T06:38:17.622Z,100421.22
2018-07-22T06:40:45.367Z,100424.57
2018-07-22T06:43:13.138Z,100423.23
2018-07-22T06:45:40.910Z,100428.05
2018-07-22T06:48:08.707Z,100426.05
2018-07-22T06:50:36.453Z,100435.62
2018-07-22T06:53:04.240Z,100434.13
2018-07-22T06:55:32.055Z,100431.65
2018-07-22T06:57:59.811Z,100430.32
2018-07-22T07:00:27.560Z,100423.63
2018-07-22T07:02:55.337Z,100431.34
2018-07-22T07:05:23.217Z,100435.34
2018-07-22T07:07:50.929Z,100431.33
2018-07-22T07:10:18.674Z,100432.19
2018-07-22T07:12:46.574Z,100432.03
2018-07-22T07:15:14.306Z,100434.88
2018-07-22T07:17:42.180Z,100436.55
2018-07-22T07:20:10.077Z,100434.68
2018-07-22T07:22:37.811Z,100442.39
2018-07-22T07:25:06.231Z,100440.23
2018-07-22T07:27:34.122Z,100440.41
2018-07-22T07:30:02.059Z,100437.23
2018-07-22T07:32:29.823Z,100440.59
2018-07-22T07:34:57.589Z,100439.25
2018-07-22T07:37:25.365Z,100440.82
2018-07-22T07:39:53.152Z,100436.80
2018-07-22T07:42:21.020Z,100442.98
2018-07-22T07:44:48.781Z,100442.52
2018-07-22T07:47:16.518Z,100447.87
2018-07-22T07:49:44.266Z,100443.84
2018-07-22T07:52:12.006Z,100442.84
2018-07-22T07:54:39.729Z,100441.65
2018-07-22T07:57:07.580Z,100444.67
2018-07-22T07:59:35.298Z,100443.84
2018-07-22T08:02:03.125Z,100445.02
2018-07-22T08:04:30.915Z,100442.86
2018-07-22T08:06:58.636Z,100434.14
2018-07-22T08:09:26.362Z,100442.19
2018-07-22T08:11:54.182Z,100442.01
2018-07-22T08:14:21.938Z,100446.04
2018-07-22T08:16:49.743Z,100440.53
2018-07-22T08:19:17.466Z,100441.18
2018-07-22T08:21:45.351Z,100437.64
2018-07-22T08:24:13.033Z,100442.86
2018-07-22T08:26:40.802Z,100452.41
2018-07-22T08:29:25.850Z,100453.25
2018-07-22T08:31:53.607Z,100458.75
2018-07-22T08:34:21.550Z,100464.13
2018-07-22T08:36:49.572Z,100461.77
2018-07-22T08:39:19.129Z,100466.66
2018-07-22T08:41:47.265Z,100457.09
2018-07-22T08:44:15.082Z,100462.64
2018-07-22T08:46:43.125Z,100465.52
2018-07-22T08:49:10.884Z,100461.84
2018-07-22T08:51:38.726Z,100460.84
2018-07-22T08:54:06.497Z,100463.69
2018-07-22T08:56:34.408Z,100466.55
2018-07-22T08:59:02.439Z,100466.70
2018-07-22T09:01:30.786Z,100467.70
2018-07-22T09:03:58.670Z,100460.19
2018-07-22T09:06:27.012Z,100465.03
2018-07-22T09:08:54.811Z,100461.20
2018-07-22T09:11:22.949Z,100466.58
2018-07-22T09:13:50.689Z,100459.72
2018-07-22T09:16:18.413Z,100462.08
2018-07-22T09:18:46.165Z,100464.27
2018-07-22T09:21:13.862Z,100461.88
2018-07-22T09:23:41.595Z,100455.89
2018-07-22T09:26:09.420Z,100461.73
2018-07-22T09:28:37.172Z,100457.23
2018-07-22T09:31:05.514Z,100460.92
2018-07-22T09:33:33.311Z,100466.96
2018-07-22T09:36:01.063Z,100462.94
2018-07-22T09:38:28.823Z,100464.49
2018-07-22T09:40:56.766Z,100466.50
2018-07-22T09:43:25.244Z,100470.02
2018-07-22T09:45:52.937Z,100470.87
2018-07-22T09:48:20.686Z,100467.66
2018-07-22T09:50:48.479Z,100469.52
2018-07-22T09:53:16.562Z,100472.88
2018-07-22T09:55:44.318Z,100472.69
2018-07-22T09:58:12.037Z,100474.36
2018-07-22T10:00:45.260Z,100467.83
2018-07-22T10:03:12.973Z,100471.52
2018-07-22T10:05:40.685Z,100471.52
2018-07-22T10:08:08.800Z,100474.20
2018-07-22T10:10:36.527Z,100479.25
2018-07-22T10:13:04.242Z,100471.34
2018-07-22T10:15:31.937Z,100476.38
2018-07-22T10:17:59.655Z,100476.90
2018-07-22T10:20:27.345Z,100477.91
2018-07-22T10:22:55.272Z,100447.02
2018-07-22T10:25:23.038Z,100484.94
2018-07-22T10:27:50.788Z,100479.25
2018-07-22T10:30:18.471Z,100480.04
2018-07-22T10:32:46.163Z,100480.72
2018-07-22T10:35:13.862Z,100477.70
2018-07-22T10:37:41.559Z,100479.88
2018-07-22T10:40:09.254Z,100481.72
2018-07-22T10:42:36.993Z,100479.38
2018-07-22T10:45:05.195Z,100484.92
2018-07-22T10:47:32.931Z,100486.75
2018-07-22T10:50:00.633Z,100486.09
2018-07-22T10:52:28.341Z,100486.09
2018-07-22T10:54:56.024Z,100486.58
2018-07-22T10:57:23.783Z,100487.92
2018-07-22T10:59:51.521Z,100485.22
2018-07-22T11:02:19.439Z,100250.18
2018-07-22T11:04:47.097Z,100475.98
2018-07-22T11:07:14.798Z,100476.80
2018-07-22T11:09:42.499Z,100475.46
2018-07-22T11:12:10.198Z,100473.63
2018-07-22T11:14:38.094Z,100471.63
2018-07-22T11:17:05.772Z,100474.83
2018-07-22T11:19:33.460Z,100475.33
2018-07-22T11:22:01.184Z,100475.48
2018-07-22T11:24:28.861Z,100472.45
2018-07-22T11:26:56.574Z,100469.95
2018-07-22T11:29:24.289Z,100474.45
2018-07-22T11:31:51.997Z,100477.98
2018-07-22T11:34:19.672Z,100478.81
2018-07-22T11:36:47.396Z,100481.70
2018-07-22T11:39:15.082Z,100479.34
2018-07-22T11:41:42.773Z,100473.96
2018-07-22T11:44:10.475Z,100469.95
2018-07-22T11:46:39.078Z,100475.50
2018-07-22T11:49:07.691Z,100445.59
2018-07-22T11:51:36.126Z,100470.93
2018-07-22T11:54:03.918Z,100477.17
2018-07-22T11:56:31.584Z,100478.52
2018-07-22T11:58:59.334Z,100489.25
2018-07-22T12:01:27.157Z,100493.31
2018-07-22T12:03:54.894Z,100485.06
2018-07-22T12:06:22.639Z,100489.95
2018-07-22T12:08:50.311Z,100494.31
2018-07-22T12:11:18.007Z,100491.97
2018-07-22T12:13:45.700Z,100494.11
2018-07-22T12:16:13.394Z,100485.54
2018-07-22T12:18:41.141Z,100476.97
2018-07-22T12:21:08.900Z,100476.13
2018-07-22T12:23:36.619Z,100471.23
2018-07-22T12:26:04.350Z,100466.39
2018-07-22T12:28:32.046Z,100466.05
2018-07-22T12:30:59.777Z,100452.75
2018-07-22T12:33:27.514Z,100464.69
2018-07-22T12:35:55.192Z,100457.94
2018-07-22T12:38:22.902Z,100462.81
2018-07-22T12:40:50.573Z,100463.30
2018-07-22T12:43:18.274Z,100467.31
2018-07-22T12:45:45.966Z,100473.88
2018-07-22T12:48:13.662Z,100470.31
2018-07-22T12:50:41.341Z,100474.17
2018-07-22T12:53:09.477Z,100467.40
2018-07-22T12:55:37.646Z,100476.08
2018-07-22T12:58:05.380Z,100473.73
2018-07-22T13:00:33.056Z,100482.30
2018-07-22T13:03:00.775Z,100473.19
2018-07-22T13:05:28.552Z,100475.00
2018-07-22T13:07:56.231Z,100478.87
2018-07-22T13:10:23.926Z,100478.19
2018-07-22T13:12:51.813Z,100484.59
2018-07-22T13:15:19.603Z,100479.84
2018-07-22T13:17:47.325Z,100475.94
2018-07-22T13:20:15.052Z,100476.46
2018-07-22T13:22:42.772Z,100474.73
2018-07-22T13:25:10.478Z,100471.48
2018-07-22T13:27:38.249Z,100464.95
2018-07-22T13:30:06.620Z,100467.08
2018-07-22T13:32:34.362Z,100460.97
2018-07-22T13:35:02.117Z,100464.72
2018-07-22T13:37:29.802Z,100461.73
2018-07-22T13:39:57.520Z,100459.64
2018-07-22T13:42:25.278Z,100462.74
2018-07-22T13:44:52.995Z,100459.72
2018-07-22T13:47:20.706Z,100461.41
2018-07-22T13:49:48.404Z,100456.27
2018-07-22T13:52:16.103Z,100454.19
2018-07-22T13:54:44.043Z,100450.80
2018-07-22T13:57:11.774Z,100444.30
2018-07-22T13:59:39.465Z,100443.47
2018-07-22T14:02:08.017Z,100446.67
2018-07-22T14:04:35.814Z,100443.75
2018-07-22T14:07:03.663Z,100460.37
2018-07-22T14:09:31.445Z,100451.48
2018-07-22T14:11:59.187Z,100449.67
2018-07-22T14:14:26.930Z,100458.67
2018-07-22T14:16:54.639Z,100463.71
2018-07-22T14:19:22.375Z,100465.59
2018-07-22T14:21:50.115Z,100480.00
2018-07-22T14:24:18.610Z,100469.12
2018-07-22T14:26:46.397Z,100471.16
2018-07-22T14:29:14.113Z,100473.12
2018-07-22T14:31:41.926Z,100475.16
2018-07-22T14:34:09.913Z,100477.81
2018-07-22T14:36:37.783Z,100477.81
2018-07-22T14:39:08.879Z,100474.58
2018-07-22T14:41:36.615Z,100474.73
2018-07-22T14:44:04.434Z,100485.20
2018-07-22T14:46:32.121Z,100475.05
2018-07-22T14:48:59.860Z,100478.67
2018-07-22T14:51:27.620Z,100473.80
2018-07-22T14:53:55.310Z,100477.70
2018-07-22T14:56:23.068Z,100477.37
2018-07-22T14:58:50.788Z,100480.17
2018-07-22T15:01:18.583Z,100477.67
2018-07-22T15:03:46.354Z,100477.49
2018-07-22T15:06:14.115Z,100479.28
2018-07-22T15:08:42.178Z,100487.08
2018-07-22T15:11:09.890Z,100482.53
2018-07-22T15:13:37.909Z,100483.42
2018-07-22T15:16:06.254Z,100484.37
2018-07-22T15:18:34.231Z,100480.16
2018-07-22T15:21:02.042Z,100482.74
2018-07-22T15:23:30.067Z,100484.80
2018-07-22T15:25:57.864Z,100479.28
2018-07-22T15:28:25.646Z,100469.66
2018-07-22T15:30:53.433Z,100473.63
2018-07-22T15:33:21.233Z,100466.88
2018-07-22T15:38:21.562Z,100485.27
2018-07-22T15:40:49.346Z,100485.27
2018-07-22T15:43:17.074Z,100481.22
2018-07-22T15:45:44.771Z,100484.89
2018-07-22T15:48:12.620Z,100480.34
2018-07-22T15:50:40.395Z,100479.17
2018-07-22T15:53:08.136Z,100482.19
2018-07-22T15:55:36.210Z,100474.94
2018-07-22T15:58:03.726Z,100477.58
2018-07-22T16:00:31.410Z,100467.69
2018-07-22T16:02:59.138Z,100464.88
2018-07-22T16:05:26.868Z,100473.34
2018-07-22T16:07:54.602Z,100473.23
2018-07-22T16:10:22.403Z,100473.56
2018-07-22T16:12:50.161Z,100468.48
2018-07-22T16:15:17.927Z,100470.00
2018-07-22T16:17:45.723Z,100476.20
2018-07-22T16:20:13.504Z,100471.81
2018-07-22T16:22:41.224Z,100342.73
2018-07-22T16:25:09.605Z,100482.03
2018-07-22T16:27:37.370Z,100490.39
2018-07-22T16:30:06.327Z,100483.25
2018-07-22T16:32:34.155Z,100482.94
2018-07-22T16:35:01.880Z,100487.24
2018-07-22T16:37:29.729Z,100485.25
2018-07-22T16:39:57.481Z,100484.92
2018-07-22T16:42:25.253Z,100482.98
2018-07-22T16:44:53.002Z,100485.83
2018-07-22T16:47:20.714Z,100490.52
2018-07-22T16:49:48.406Z,100487.36
2018-07-22T16:52:16.179Z,100487.30
2018-07-22T16:54:44.154Z,100489.36
2018-07-22T16:57:11.952Z,100480.36
2018-07-22T16:59:39.655Z,100480.55
2018-07-22T17:02:07.425Z,100483.49
2018-07-22T17:04:35.184Z,100481.50
2018-07-22T17:07:02.875Z,100483.78
2018-07-22T17:09:30.786Z,100477.70
2018-07-22T17:11:58.655Z,100480.61
2018-07-22T17:14:26.398Z,100477.06
2018-07-22T17:16:54.192Z,100477.27
2018-07-22T17:19:22.002Z,100480.22
2018-07-22T17:21:49.766Z,100476.88
2018-07-22T17:24:17.504Z,100478.94
2018-07-22T17:26:45.231Z,100482.36
2018-07-22T17:29:13.018Z,100483.89
2018-07-22T17:31:40.799Z,100490.07
2018-07-22T17:34:08.510Z,100487.48
2018-07-22T17:36:36.247Z,100485.80
2018-07-22T17:39:06.215Z,100495.09
2018-07-22T17:41:33.904Z,100490.00
2018-07-22T17:44:01.669Z,100485.30
2018-07-22T17:46:29.409Z,100485.34
2018-07-22T17:48:57.158Z,100482.85
2018-07-22T17:51:24.872Z,100484.98
2018-07-22T17:53:52.778Z,100445.09
2018-07-22T17:56:20.569Z,100482.78
2018-07-22T17:58:48.305Z,100479.77
2018-07-22T18:01:16.285Z,100481.97
2018-07-22T18:03:44.046Z,100490.32
2018-07-22T18:06:11.807Z,100488.97
2018-07-22T18:08:39.539Z,100486.45
2018-07-22T18:11:07.333Z,100486.66
2018-07-22T18:13:35.065Z,100485.30
2018-07-22T18:16:02.874Z,100486.66
2018-07-22T18:18:30.648Z,100489.68
2018-07-22T18:20:58.412Z,100484.27
2018-07-22T18:23:26.142Z,100485.80
2018-07-22T18:25:53.912Z,100488.72
2018-07-22T18:28:21.656Z,100483.50
2018-07-22T18:30:49.431Z,100482.14
2018-07-22T18:33:17.118Z,100483.00
2018-07-22T18:35:44.875Z,100484.20
2018-07-22T18:38:12.674Z,100490.86
2018-07-22T18:40:40.386Z,100488.51
2018-07-22T18:43:08.080Z,100489.22
2018-07-22T18:45:35.808Z,100494.58
2018-07-22T18:48:03.658Z,100489.03
2018-07-22T18:50:31.402Z,100491.73
2018-07-22T18:52:59.137Z,100490.45
2018-07-22T18:55:26.931Z,100496.95
2018-07-22T18:57:54.769Z,100503.77
2018-07-22T19:00:22.619Z,100501.71
2018-07-22T19:02:50.388Z,100499.63
2018-07-22T19:05:18.190Z,100499.25
2018-07-22T19:07:45.988Z,100506.21
2018-07-22T19:10:13.783Z,100508.13
2018-07-22T19:12:41.530Z,100514.29
2018-07-22T19:15:09.285Z,100507.56
2018-07-22T19:17:37.027Z,100506.45
2018-07-22T19:20:04.951Z,100506.84
2018-07-22T19:22:32.653Z,100507.16
2018-07-22T19:25:00.342Z,100508.39
2018-07-22T19:27:28.066Z,100514.67
2018-07-22T19:29:55.789Z,100511.55
2018-07-22T19:32:23.549Z,100517.27
2018-07-22T19:34:51.308Z,100516.03
2018-07-22T19:37:19.010Z,100512.42
2018-07-22T19:39:46.739Z,100517.78
2018-07-22T19:42:14.527Z,100517.83
2018-07-22T19:44:42.340Z,100517.19
2018-07-22T19:47:10.348Z,100517.71
2018-07-22T19:49:40.194Z,100521.06
2018-07-22T19:52:08.097Z,100521.23
2018-07-22T19:54:35.857Z,100526.83
2018-07-22T19:57:03.646Z,100525.66
2018-07-22T19:59:31.438Z,100527.27
2018-07-22T20:01:59.210Z,100531.69
2018-07-22T20:04:26.992Z,100532.91
2018-07-22T20:06:54.909Z,100539.87
2018-07-22T20:09:22.759Z,100513.12
2018-07-22T20:11:50.564Z,100540.65
2018-07-22T20:14:18.436Z,100548.91
2018-07-22T20:16:46.364Z,100549.97
2018-07-22T20:19:14.069Z,100549.88
2018-07-22T20:21:41.831Z,100547.26
2018-07-22T20:24:09.672Z,100545.55
2018-07-22T20:26:37.433Z,100553.78
2018-07-22T20:29:05.269Z,100553.34
2018-07-22T20:31:33.140Z,100554.59
2018-07-22T20:34:00.950Z,100557.75
2018-07-22T20:36:28.791Z,100552.66
2018-07-22T20:38:56.589Z,100560.19
2018-07-22T20:41:24.298Z,100554.56
2018-07-22T20:43:52.070Z,100554.73
2018-07-22T20:46:19.809Z,100554.56
2018-07-22T20:48:47.550Z,100552.72
2018-07-22T20:51:15.300Z,100555.78
2018-07-22T20:53:43.118Z,100553.88
2018-07-22T20:56:11.121Z,100557.53
2018-07-22T20:58:38.920Z,100560.35
2018-07-22T21:01:07.119Z,100560.97
2018-07-22T21:03:34.859Z,100567.90
2018-07-22T21:06:02.679Z,100564.61
2018-07-22T21:08:30.502Z,100571.53
2018-07-22T21:10:58.996Z,100567.43
2018-07-22T21:13:27.292Z,100570.13
2018-07-22T21:15:55.208Z,100575.00
2018-07-22T21:18:23.086Z,100574.45
2018-07-22T21:20:50.894Z,100579.68
2018-07-22T21:23:18.631Z,100591.11
2018-07-22T21:25:47.239Z,100593.84
2018-07-22T21:28:15.014Z,100590.85
2018-07-22T21:30:42.770Z,100592.04
2018-07-22T21:33:10.541Z,100594.57
2018-07-22T21:35:38.341Z,100591.88
2018-07-22T21:38:06.110Z,100591.97
2018-07-22T21:40:33.893Z,100594.34
2018-07-22T21:43:01.627Z,100595.97
2018-07-22T21:45:29.350Z,100592.10
2018-07-22T21:47:57.080Z,100592.48
2018-07-22T21:50:24.853Z,100600.74
2018-07-22T21:52:52.609Z,100597.34
2018-07-22T21:55:20.360Z,100600.84
2018-07-22T21:57:48.119Z,100603.88
2018-07-22T22:00:32.463Z,100603.23
2018-07-22T22:03:01.825Z,100606.66
2018-07-22T22:05:29.559Z,100600.75
2018-07-22T22:07:57.310Z,100596.90
2018-07-22T22:10:25.598Z,100599.45
2018-07-22T22:12:53.694Z,100596.24
2018-07-22T22:15:25.582Z,100589.36
2018-07-22T22:17:54.489Z,100593.02
2018-07-22T22:20:22.260Z,100592.73
2018-07-22T22:22:50.002Z,100601.46
2018-07-22T22:25:17.900Z,100606.80
2018-07-22T22:27:45.688Z,100604.98
2018-07-22T22:30:14.848Z,100610.50
2018-07-22T22:32:43.091Z,100612.69
2018-07-22T22:35:10.838Z,100613.87
2018-07-22T22:37:39.088Z,100611.02
2018-07-22T22:40:06.901Z,100612.18
2018-07-22T22:42:34.669Z,100617.41
2018-07-22T22:45:02.423Z,100558.29
2018-07-22T22:47:30.126Z,100612.53
2018-07-22T22:49:57.962Z,100614.84
2018-07-22T22:52:25.824Z,100622.41
2018-07-22T22:54:53.655Z,100621.25
2018-07-22T22:57:21.398Z,100628.98
2018-07-22T22:59:49.144Z,100618.57
2018-07-22T23:02:16.880Z,100621.92
2018-07-22T23:04:44.625Z,100619.38
2018-07-22T23:07:12.361Z,100613.83
2018-07-22T23:09:40.275Z,100613.20
2018-07-22T23:12:08.062Z,100619.23
2018-07-22T23:14:35.842Z,100618.38
2018-07-22T23:17:03.655Z,100619.72
2018-07-22T23:19:31.546Z,100624.23
2018-07-22T23:21:59.286Z,100620.88
2018-07-22T23:24:27.030Z,100623.84
2018-07-22T23:26:54.780Z,100618.86
2018-07-22T23:29:22.501Z,100621.53
2018-07-22T23:31:50.239Z,100617.52
2018-07-22T23:34:17.967Z,100616.51
2018-07-22T23:36:45.718Z,100617.84
2018-07-22T23:39:13.462Z,100622.21
2018-07-22T23:41:41.255Z,100615.80
2018-07-22T23:44:09.072Z,100618.81
2018-07-22T23:46:36.790Z,100613.67
2018-07-22T23:49:04.555Z,100616.64
2018-07-22T23:51:32.269Z,100616.20
2018-07-22T23:54:00.059Z,100612.89
2018-07-22T23:56:27.758Z,100614.37
2018-07-22T23:58:55.442Z,100615.05
